Time;durP1;ratioP1;P1;durP2;ratioP2;P2;SDS_P1;SDS_P2;PMS_P1;PMS_P2;Temp;Humidity;BMP_temperature;BMP_pressure;BME280_temperature;BME280_humidity;BME280_pressure;Samples;Min_cycle;Max_cycle;Signal;HPM_P1;HPM_P2
2022/05/01 00:02:07;;;;;;;18.00;8.57;;;;;;;8.20;34.37;100127.97;5016578;28;20048;-75
2022/05/01 00:04:34;;;;;;;20.67;8.43;;;;;;;8.09;34.40;100120.09;5017123;28;20037;-69
2022/05/01 00:06:59;;;;;;;19.47;8.47;;;;;;;8.10;34.46;100125.25;5016722;28;20056;-72
2022/05/01 00:09:25;;;;;;;13.63;7.73;;;;;;;8.01;34.56;100143.75;4984098;28;20045;-68
2022/05/01 00:11:51;;;;;;;20.27;8.60;;;;;;;8.04;34.66;100140.84;5016733;28;20054;-69
2022/05/01 00:14:18;;;;;;;20.37;8.53;;;;;;;7.99;34.84;100143.03;5033330;28;20508;-68
2022/05/01 00:16:44;;;;;;;20.63;8.70;;;;;;;7.94;34.95;100135.47;4983768;28;20049;-68
2022/05/01 00:19:09;;;;;;;20.97;8.43;;;;;;;7.94;35.04;100140.78;5033131;28;20056;-68
2022/05/01 00:21:36;;;;;;;18.90;7.97;;;;;;;8.03;34.93;100136.50;5016747;28;20218;-68
2022/05/01 00:24:06;;;;;;;19.40;8.03;;;;;;;8.06;34.94;100146.81;5032786;28;20128;-68
2022/05/01 00:26:32;;;;;;;22.97;9.00;;;;;;;7.99;35.14;100143.03;5032420;28;20048;-68
2022/05/01 00:29:06;;;;;;;23.80;9.77;;;;;;;8.15;35.07;100132.81;5000077;28;20242;-68
2022/05/01 00:31:33;;;;;;;23.40;9.20;;;;;;;7.99;35.19;100132.44;5016708;28;20044;-68
2022/05/01 00:36:43;;;;;;;20.43;9.07;;;;;;;7.88;35.01;100129.88;5002379;28;20155;-67
2022/05/01 00:39:09;;;;;;;16.17;7.87;;;;;;;7.94;34.82;100139.91;5016615;28;20591;-73
2022/05/01 00:41:37;;;;;;;20.27;7.20;;;;;;;8.05;34.77;100134.56;5016446;28;20043;-68
2022/05/01 00:44:11;;;;;;;20.13;8.17;;;;;;;8.13;34.80;100142.69;5016087;28;20045;-68
2022/05/01 00:46:44;;;;;;;15.13;7.77;;;;;;;8.09;34.78;100139.47;5016905;28;20037;-68
2022/05/01 00:49:13;;;;;;;22.23;8.60;;;;;;;8.20;35.10;100144.69;5032744;28;20512;-69
2022/05/01 00:51:57;;;;;;;15.90;8.37;;;;;;;8.13;34.62;100116.25;5033193;28;20114;-68
2022/05/01 00:54:25;;;;;;;17.77;8.87;;;;;;;8.20;34.91;100139.41;5016278;28;20044;-69
2022/05/01 00:57:01;;;;;;;21.10;9.87;;;;;;;8.19;35.03;100144.81;5032670;28;20091;-68
2022/05/01 00:59:27;;;;;;;19.23;9.23;;;;;;;7.85;35.19;100117.75;5016105;28;20072;-70
2022/05/01 01:01:53;;;;;;;20.93;8.27;;;;;;;8.08;35.08;100150.19;4983361;28;20068;-69
2022/05/01 01:04:22;;;;;;;20.83;9.30;;;;;;;8.05;35.14;100146.00;5016043;28;20466;-68
2022/05/01 01:06:48;;;;;;;19.93;8.80;;;;;;;8.05;34.88;100153.09;4999673;28;20043;-69
2022/05/01 01:09:16;;;;;;;14.77;6.47;;;;;;;8.09;34.10;100149.19;4999881;28;20048;-68
2022/05/01 01:11:42;;;;;;;13.90;7.63;;;;;;;7.95;34.66;100152.19;5032309;28;20365;-72
2022/05/01 01:14:09;;;;;;;20.60;8.70;;;;;;;8.05;34.93;100153.94;5032975;28;20045;-69
2022/05/01 01:16:36;;;;;;;15.93;8.20;;;;;;;8.06;34.89;100152.94;4999513;28;20041;-68
2022/05/01 01:19:07;;;;;;;21.50;8.67;;;;;;;8.19;34.70;100150.97;5015660;28;20068;-68
2022/05/01 01:21:33;;;;;;;;;;;;;;;8.28;34.82;100150.22;5000023;28;20095;-68
2022/05/01 01:24:00;;;;;;;14.40;6.50;;;;;;;7.95;34.50;100149.56;5015920;28;20019;-69
2022/05/01 01:26:26;;;;;;;21.43;8.97;;;;;;;7.96;34.78;100143.28;4999398;28;20355;-69
2022/05/01 01:28:54;;;;;;;21.13;9.00;;;;;;;8.07;34.80;100151.16;4999616;28;20143;-68
2022/05/01 01:31:40;;;;;;;14.53;8.20;;;;;;;8.04;34.54;100149.59;5016146;28;20052;-68
2022/05/01 01:34:10;;;;;;;14.47;8.50;;;;;;;8.10;34.74;100151.72;4985762;28;20135;-67
2022/05/01 01:36:38;;;;;;;17.83;7.73;;;;;;;8.03;34.45;100144.44;4983410;28;20047;-67
2022/05/01 01:39:03;;;;;;;14.53;7.47;;;;;;;7.91;34.39;100146.31;5002499;28;20501;-69
2022/05/01 01:41:30;;;;;;;16.27;7.90;;;;;;;7.88;34.41;100119.28;4987096;28;20048;-68
2022/05/01 01:43:57;;;;;;;16.77;6.80;;;;;;;8.01;34.33;100149.84;5002818;28;20098;-68
2022/05/01 01:46:23;;;;;;;13.23;7.23;;;;;;;7.92;34.21;100147.97;5003749;28;20135;-67
2022/05/01 01:48:50;;;;;;;17.03;7.07;;;;;;;7.94;34.44;100145.22;5020032;28;20163;-68
2022/05/01 01:51:17;;;;;;;16.33;7.53;;;;;;;7.91;34.51;100142.81;5019585;28;20037;-67
2022/05/01 01:53:43;;;;;;;16.23;7.10;;;;;;;7.90;34.42;100149.91;4987014;28;20045;-67
2022/05/01 01:56:09;;;;;;;12.00;7.50;;;;;;;7.94;34.73;100147.84;5003385;28;20537;-68
2022/05/01 01:58:36;;;;;;;14.47;6.87;;;;;;;7.87;34.28;100150.16;5035662;28;20037;-68
2022/05/01 02:01:04;;;;;;;15.77;7.03;;;;;;;7.96;34.55;100151.22;5019168;28;20045;-68
2022/05/01 02:03:30;;;;;;;14.50;7.77;;;;;;;7.81;34.44;100157.81;5002715;28;20052;-69
2022/05/01 02:05:56;;;;;;;11.97;7.37;;;;;;;7.75;34.73;100153.03;5002860;28;20075;-69
2022/05/01 02:08:22;;;;;;;15.50;6.90;;;;;;;7.72;34.25;100146.16;4986768;28;20512;-68
2022/05/01 02:10:48;;;;;;;11.80;6.27;;;;;;;7.61;34.59;100148.03;5002578;28;20071;-68
2022/05/01 02:13:14;;;;;;;15.87;7.00;;;;;;;7.57;34.78;100122.81;5002692;28;20182;-69
2022/05/01 02:15:40;;;;;;;18.90;9.00;;;;;;;7.75;34.87;100139.81;5002879;28;20083;-68
2022/05/01 02:18:06;;;;;;;11.43;7.07;;;;;;;7.72;34.77;100155.94;5018720;28;20379;-68
2022/05/01 02:21:34;;;;;;;11.77;6.70;;;;;;;7.57;34.75;100125.44;4986233;28;20037;-69
2022/05/01 02:23:22;;;;;;;19.23;7.53;;;;;;;7.83;34.67;100161.97;5021365;28;20048;-67
2022/05/01 02:25:48;;;;;;;18.10;7.90;;;;;;;7.75;35.03;100155.66;5051650;28;20523;-68
2022/05/01 02:28:14;;;;;;;17.20;7.80;;;;;;;7.73;35.02;100160.22;5018964;28;20076;-67
2022/05/01 02:30:41;;;;;;;22.90;7.67;;;;;;;7.67;35.06;100137.78;5051811;28;20076;-69
2022/05/01 02:33:10;;;;;;;15.73;7.70;;;;;;;7.85;34.81;100156.56;5034810;28;20038;-69
2022/05/01 02:35:36;;;;;;;18.97;8.00;;;;;;;7.80;34.86;100169.31;5034807;28;20045;-68
2022/05/01 02:38:02;;;;;;;19.17;8.13;;;;;;;7.85;34.77;100156.56;4985910;28;20045;-68
2022/05/01 02:40:31;;;;;;;17.13;8.17;;;;;;;7.82;34.69;100152.38;5002105;28;20051;-68
2022/05/01 02:43:00;;;;;;;16.13;7.67;;;;;;;7.96;34.68;100153.88;5018721;28;20079;-68
2022/05/01 02:45:27;;;;;;;15.77;7.90;;;;;;;7.85;34.82;100156.56;5017990;28;20052;-68
2022/05/01 02:47:53;;;;;;;18.43;8.13;;;;;;;7.74;35.10;100149.53;5034650;28;20045;-67
2022/05/01 02:50:19;;;;;;;14.97;7.10;;;;;;;7.80;34.69;100164.03;5000905;28;20140;-68
2022/05/01 02:52:45;;;;;;;16.93;7.77;;;;;;;7.74;34.85;100152.19;5018198;28;20552;-69
2022/05/01 02:55:11;;;;;;;20.37;7.80;;;;;;;7.83;34.76;100161.13;5017976;28;20056;-67
2022/05/01 02:57:38;;;;;;;16.27;7.37;;;;;;;7.82;34.73;100162.97;5017854;28;20076;-67
2022/05/01 03:00:05;;;;;;;18.97;7.83;;;;;;;7.75;34.79;100129.22;5018062;28;20087;-68
2022/05/01 03:02:32;;;;;;;17.80;8.73;;;;;;;7.95;34.77;100158.31;5034299;28;20075;-68
2022/05/01 03:05:00;;;;;;;22.57;9.10;;;;;;;7.90;34.74;100164.97;5034294;28;20093;-68
2022/05/01 03:07:26;;;;;;;24.07;8.43;;;;;;;7.85;34.42;100153.91;5018256;28;20575;-68
2022/05/01 03:09:52;;;;;;;15.33;7.53;;;;;;;7.89;34.23;100165.91;4985113;28;20044;-68
2022/05/01 03:12:22;;;;;;;16.27;7.90;;;;;;;7.99;34.27;100161.53;5034155;28;20045;-69
2022/05/01 03:14:50;;;;;;;13.57;6.83;;;;;;;8.01;34.22;100159.63;5034490;28;20048;-68
2022/05/01 03:17:16;;;;;;;14.83;7.23;;;;;;;8.01;33.80;100167.53;4985017;28;20037;-68
2022/05/01 03:22:25;;;;;;;11.67;6.97;;;;;;;8.08;33.61;100164.25;5003610;28;20114;-67
2022/05/01 03:24:51;;;;;;;17.93;6.63;;;;;;;8.13;33.81;100163.88;5001146;28;20091;-68
2022/05/01 03:27:17;;;;;;;14.80;6.43;;;;;;;8.21;33.44;100179.94;4985079;28;20052;-68
2022/05/01 03:30:15;;;;;;;10.87;6.53;;;;;;;8.33;33.38;100173.63;5017204;28;20093;-69
2022/05/01 03:32:29;;;;;;;11.50;6.07;;;;;;;8.27;33.43;100171.50;5036400;28;20037;-68
2022/05/01 03:34:56;;;;;;;13.37;7.10;;;;;;;8.27;33.37;100166.22;5001092;28;20045;-69
2022/05/01 03:37:22;;;;;;;17.37;7.80;;;;;;;8.36;33.66;100178.66;5033605;28;20048;-67
2022/05/01 03:39:48;;;;;;;13.37;6.90;;;;;;;8.32;33.49;100174.56;4985082;28;20041;-68
2022/05/01 03:42:14;;;;;;;15.10;7.83;;;;;;;8.35;33.95;100176.97;4984659;28;20041;-69
2022/05/01 03:44:40;;;;;;;17.33;8.30;;;;;;;8.43;33.66;100177.16;5017043;28;20041;-71
2022/05/01 03:47:06;;;;;;;18.97;8.70;;;;;;;8.52;34.39;100181.66;4984529;28;20037;-67
2022/05/01 03:49:31;;;;;;;13.67;7.40;;;;;;;8.52;33.64;100168.41;4984665;28;20408;-68
2022/05/01 03:51:57;;;;;;;15.03;7.97;;;;;;;8.54;34.00;100175.28;5017045;28;20504;-68
2022/05/01 03:54:24;;;;;;;18.37;7.93;;;;;;;8.59;34.00;100166.94;4984775;28;20060;-69
2022/05/01 03:56:50;;;;;;;18.20;7.97;;;;;;;8.68;33.61;100170.59;5033675;28;20169;-69
2022/05/01 03:59:15;;;;;;;17.80;9.00;;;;;;;8.83;34.37;100185.97;4984642;28;20123;-69
2022/05/01 04:01:42;;;;;;;19.60;8.20;;;;;;;8.71;34.11;100175.63;4984210;28;20053;-69
2022/05/01 04:04:08;;;;;;;18.90;8.97;;;;;;;8.84;34.13;100184.19;5016807;28;20064;-68
2022/05/01 04:06:34;;;;;;;17.67;8.27;;;;;;;8.87;33.94;100181.25;5017005;28;20504;-68
2022/05/01 04:09:00;;;;;;;19.77;9.63;;;;;;;8.89;34.12;100177.50;5033227;28;20513;-68
2022/05/01 04:11:26;;;;;;;19.93;8.50;;;;;;;9.00;33.79;100173.91;4984153;28;20074;-68
2022/05/01 04:13:52;;;;;;;29.93;10.17;;;;;;;9.06;34.66;100160.97;5032912;28;20114;-72
2022/05/01 04:16:17;;;;;;;19.93;8.53;;;;;;;9.02;34.54;100164.88;4984395;28;20098;-69
2022/05/01 04:18:43;;;;;;;26.60;11.17;;;;;;;9.13;34.32;100180.66;5033165;28;20048;-68
2022/05/01 04:21:12;;;;;;;28.70;11.07;;;;;;;9.32;34.73;100178.03;4983888;28;20190;-68
2022/05/01 04:23:38;;;;;;;23.97;11.00;;;;;;;9.31;34.49;100179.00;5016708;28;20139;-68
2022/05/01 04:26:04;;;;;;;29.63;11.60;;;;;;;9.43;34.40;100169.09;5033040;28;20084;-68
2022/05/01 04:28:30;;;;;;;32.23;11.47;;;;;;;9.41;34.52;100168.44;5016472;28;20500;-68
2022/05/01 04:30:55;;;;;;;31.37;12.83;;;;;;;9.59;34.62;100172.91;4983824;28;20048;-68
2022/05/01 04:33:21;;;;;;;30.27;12.17;;;;;;;9.69;34.52;100170.25;5000112;28;20045;-68
2022/05/01 04:35:50;;;;;;;27.70;11.27;;;;;;;9.84;34.70;100174.19;4984246;28;20044;-67
2022/05/01 04:38:24;;;;;;;25.80;11.00;;;;;;;9.92;33.84;100164.53;5016762;28;20049;-67
2022/05/01 04:40:53;;;;;;;30.30;12.10;;;;;;;10.11;34.07;100183.13;5016612;28;20037;-71
2022/05/01 04:43:21;;;;;;;30.20;12.73;;;;;;;10.24;34.28;100193.41;5016636;28;20516;-68
2022/05/01 04:45:52;;;;;;;33.47;13.60;;;;;;;10.14;33.66;100158.94;4999877;28;20045;-68
2022/05/01 04:48:19;;;;;;;29.90;13.10;;;;;;;10.31;33.52;100185.72;5000368;28;20053;-68
2022/05/01 04:50:46;;;;;;;35.47;12.32;;;;;;;10.33;33.40;100165.19;5032879;28;20124;-68
2022/05/01 04:53:13;;;;;;;25.33;11.52;;;;;;;10.56;33.12;100185.09;4983458;28;20467;-68
2022/05/01 04:55:40;;;;;;;30.67;11.40;;;;;;;10.57;33.20;100171.69;5016149;28;20139;-69
2022/05/01 04:58:07;;;;;;;23.50;10.00;;;;;;;10.76;32.86;100182.25;4999991;28;20045;-69
2022/05/01 05:00:34;;;;;;;23.30;9.30;;;;;;;10.83;32.38;100177.16;5000165;28;20041;-68
2022/05/01 05:03:00;;;;;;;21.77;8.55;;;;;;;10.89;31.92;100181.91;5032257;28;20077;-69
2022/05/01 05:05:27;;;;;;;18.92;7.35;;;;;;;11.15;31.28;100190.84;4983486;28;20088;-68
2022/05/01 05:07:54;;;;;;;17.70;8.68;;;;;;;11.22;30.59;100191.94;5032597;28;20053;-68
2022/05/01 05:10:20;;;;;;;17.80;7.35;;;;;;;11.29;30.22;100182.38;4983594;28;20044;-68
2022/05/01 05:12:47;;;;;;;16.15;6.35;;;;;;;11.51;30.00;100195.25;5016974;28;20127;-69
2022/05/01 05:15:16;;;;;;;17.35;7.30;;;;;;;11.78;29.89;100192.56;5019504;28;20386;-68
2022/05/01 05:17:43;;;;;;;14.50;5.80;;;;;;;11.78;29.10;100187.25;5036124;28;20393;-70
2022/05/01 05:20:13;;;;;;;13.63;6.00;;;;;;;11.99;28.57;100190.44;5020496;28;20045;-68
2022/05/01 05:22:41;;;;;;;14.43;7.40;;;;;;;12.05;29.65;100192.50;5037075;28;20131;-68
2022/05/01 05:25:11;;;;;;;35.92;17.52;;;;;;;12.29;28.16;100187.34;5020264;28;20187;-69
2022/05/01 05:27:37;;;;;;;18.25;9.75;;;;;;;12.21;28.67;100181.94;5020184;28;20040;-68
2022/05/01 05:30:04;;;;;;;14.95;6.18;;;;;;;12.33;27.69;100183.38;5019563;28;20049;-69
2022/05/01 05:32:30;;;;;;;13.90;5.50;;;;;;;12.39;27.34;100187.25;5019529;28;20384;-68
2022/05/01 05:34:55;;;;;;;11.60;5.22;;;;;;;12.46;26.86;100189.13;4986750;28;20052;-74
2022/05/01 05:37:21;;;;;;;10.82;5.03;;;;;;;12.51;26.29;100186.84;4987275;28;20044;-68
2022/05/01 05:39:48;;;;;;;18.92;5.65;;;;;;;12.59;26.62;100176.22;4986922;28;20041;-69
2022/05/01 05:42:14;;;;;;;16.75;5.68;;;;;;;12.70;26.73;100181.28;5035847;28;20451;-69
2022/05/01 05:44:39;;;;;;;11.07;5.15;;;;;;;12.67;26.03;100165.59;5019046;28;20040;-69
2022/05/01 05:47:05;;;;;;;14.10;5.40;;;;;;;12.90;26.24;100164.06;5019016;28;20049;-68
2022/05/01 05:49:31;;;;;;;14.80;6.15;;;;;;;12.94;26.08;100146.75;4986772;28;20573;-68
2022/05/01 05:51:58;;;;;;;12.52;6.40;;;;;;;13.19;25.76;100169.88;5002743;28;20056;-70
2022/05/01 05:54:24;;;;;;;17.15;6.78;;;;;;;13.23;25.55;100159.72;5035687;28;20079;-69
2022/05/01 05:56:50;;;;;;;21.40;5.65;;;;;;;13.38;25.19;100166.09;5018896;28;20080;-68
2022/05/01 05:59:16;;;;;;;3.67;1.70;;;;;;;13.21;22.55;100157.22;5018779;28;20044;-68
2022/05/01 06:01:42;;;;;;;2.67;1.58;;;;;;;13.57;21.80;100165.81;5019155;28;20083;-69
2022/05/01 06:04:08;;;;;;;3.90;1.77;;;;;;;13.72;21.64;100173.97;4986529;28;20075;-69
2022/05/01 06:06:35;;;;;;;1.80;1.52;;;;;;;13.96;21.28;100171.34;5019119;28;20036;-68
2022/05/01 06:09:01;;;;;;;3.85;1.70;;;;;;;14.13;21.05;100168.50;5018873;28;20063;-69
2022/05/01 06:11:27;;;;;;;6.55;2.83;;;;;;;14.01;21.04;100169.84;5018984;28;20129;-69
2022/05/01 06:13:53;;;;;;;2.35;1.77;;;;;;;14.01;21.16;100163.69;4986795;28;20044;-69
2022/05/01 06:16:19;;;;;;;4.40;1.70;;;;;;;14.02;20.96;100152.00;5002607;28;20057;-69
2022/05/01 06:18:46;;;;;;;3.75;1.70;;;;;;;14.24;21.26;100167.34;5002724;28;20041;-68
2022/05/01 06:21:13;;;;;;;2.42;1.65;;;;;;;14.38;21.45;100155.97;5035313;28;20037;-69
2022/05/01 06:23:39;;;;;;;3.33;1.92;;;;;;;14.39;21.21;100165.69;5067654;28;20424;-68
2022/05/01 06:26:07;;;;;;;6.18;2.80;;;;;;;14.66;21.02;100158.09;5001906;28;20048;-69
2022/05/01 06:28:33;;;;;;;3.13;1.90;;;;;;;14.86;20.72;100153.19;5002354;28;20419;-69
2022/05/01 06:31:02;;;;;;;2.13;1.60;;;;;;;15.06;20.65;100165.16;5018626;28;20045;-75
2022/05/01 06:33:28;;;;;;;2.95;1.48;;;;;;;15.16;20.49;100166.59;5002454;28;20049;-69
2022/05/01 06:35:54;;;;;;;2.45;1.65;;;;;;;15.27;20.67;100160.88;5018577;28;20044;-69
2022/05/01 06:38:20;;;;;;;2.50;1.60;;;;;;;15.48;20.13;100164.81;5018411;28;20139;-69
2022/05/01 06:40:46;;;;;;;3.25;1.80;;;;;;;15.37;20.21;100152.63;5018295;28;20056;-68
2022/05/01 06:43:13;;;;;;;4.25;1.95;;;;;;;15.39;19.96;100157.81;5018021;28;20045;-68
2022/05/01 06:45:41;;;;;;;3.38;1.92;;;;;;;15.38;20.18;100162.34;5018398;28;20087;-69
2022/05/01 06:48:10;;;;;;;3.28;1.70;;;;;;;15.65;20.01;100153.81;5034557;28;20455;-68
2022/05/01 06:50:36;;;;;;;3.97;1.55;;;;;;;15.57;19.78;100155.69;5018047;28;20048;-69
2022/05/01 06:53:03;;;;;;;7.82;1.50;;;;;;;15.31;19.73;100160.50;5051243;28;20493;-69
2022/05/01 06:55:28;;;;;;;2.10;1.55;;;;;;;15.46;19.80;100146.25;5034689;28;20182;-69
2022/05/01 06:57:55;;;;;;;3.20;1.65;;;;;;;15.85;18.98;100140.78;4985484;28;20045;-68
2022/05/01 07:00:21;;;;;;;3.20;1.40;;;;;;;16.39;18.74;100135.06;5017778;28;20055;-69
2022/05/01 07:02:49;;;;;;;3.65;1.80;;;;;;;16.76;18.41;100137.72;5050930;28;20045;-69
2022/05/01 07:05:15;;;;;;;3.92;1.60;;;;;;;16.92;18.28;100130.50;5001408;28;20439;-69
2022/05/01 07:07:41;;;;;;;2.83;1.65;;;;;;;17.37;18.16;100132.91;5034461;28;20045;-69
2022/05/01 07:10:09;;;;;;;2.15;1.48;;;;;;;18.06;17.16;100126.81;5017777;28;20576;-69
2022/05/01 07:12:37;;;;;;;1.58;1.48;;;;;;;18.70;16.54;100122.16;4985216;28;20051;-69
2022/05/01 07:15:04;;;;;;;3.75;1.20;;;;;;;19.47;15.49;100110.91;4984981;28;20536;-70
2022/05/01 07:17:30;;;;;;;2.22;1.40;;;;;;;20.41;15.08;100106.19;5034152;28;20056;-70
2022/05/01 07:19:56;;;;;;;3.92;1.50;;;;;;;22.52;13.27;100117.38;4985129;28;20413;-69
2022/05/01 07:22:22;;;;;;;4.35;1.23;;;;;;;23.52;11.89;100122.25;4985190;28;20418;-69
2022/05/01 07:24:47;;;;;;;4.68;1.60;;;;;;;23.41;12.37;100123.03;4985103;28;20151;-69
2022/05/01 07:27:13;;;;;;;7.60;1.67;;;;;;;25.17;10.67;100117.34;4985086;28;20045;-70
2022/05/01 07:29:40;;;;;;;4.13;1.80;;;;;;;27.26;9.45;100121.97;4985173;28;20570;-69
2022/05/01 07:32:06;;;;;;;4.50;1.60;;;;;;;28.62;8.53;100115.94;5034235;28;20052;-69
2022/05/01 07:34:32;;;;;;;3.70;1.50;;;;;;;30.04;7.55;100115.41;5001278;28;20049;-70
2022/05/01 07:36:57;;;;;;;2.40;1.70;;;;;;;30.36;7.39;100111.31;5017053;28;20198;-69
2022/05/01 07:39:23;;;;;;;1.73;1.38;;;;;;;27.88;7.79;100112.31;5000872;28;20519;-69
2022/05/01 07:41:51;;;;;;;4.10;2.55;;;;;;;28.52;8.17;100106.88;5017256;28;20106;-70
2022/05/01 07:44:17;;;;;;;2.47;1.50;;;;;;;29.45;7.53;100095.81;5017247;28;20060;-72
2022/05/01 07:46:45;;;;;;;3.55;1.80;;;;;;;29.10;8.09;100095.72;5017080;28;20496;-69
2022/05/01 07:49:11;;;;;;;4.82;1.83;;;;;;;30.57;7.02;100104.69;5017540;28;20493;-70
2022/05/01 07:51:38;;;;;;;3.55;1.58;;;;;;;33.07;5.86;100097.84;5016848;28;20072;-70
2022/05/01 07:54:04;;;;;;;5.30;1.60;;;;;;;34.82;5.22;100089.59;5000485;28;20148;-75
2022/05/01 07:56:31;;;;;;;6.18;1.45;;;;;;;33.22;5.44;100086.63;4984454;28;20120;-70
2022/05/01 07:58:57;;;;;;;4.00;1.60;;;;;;;32.19;5.95;100095.44;4984409;28;20519;-70
2022/05/01 08:01:24;;;;;;;2.45;1.95;;;;;;;29.02;7.09;100074.31;4984403;28;20040;-69
2022/05/01 08:06:48;;;;;;;2.75;1.40;;;;;;;31.49;6.36;100082.16;4993312;28;20057;-69
2022/05/01 08:09:14;;;;;;;2.83;1.95;;;;;;;33.11;5.45;100063.94;5016667;28;20052;-69
2022/05/01 08:11:40;;;;;;;6.00;2.05;;;;;;;34.74;4.31;100075.66;5016754;28;20500;-69
2022/05/01 08:14:08;;;;;;;3.75;2.38;;;;;;;34.69;4.79;100076.56;4983992;28;20052;-70
2022/05/01 08:16:35;;;;;;;6.95;1.88;;;;;;;36.55;4.23;100070.34;4984234;28;20099;-69
2022/05/01 08:21:44;;;;;;;2.90;1.80;;;;;;;35.52;4.17;100062.44;5002388;28;20099;-70
2022/05/01 08:24:10;;;;;;;4.70;1.60;;;;;;;36.35;3.66;100059.03;5049532;28;20512;-70
2022/05/01 08:26:36;;;;;;;3.15;1.80;;;;;;;37.17;3.79;100044.22;4983753;28;20076;-70
2022/05/01 08:29:02;;;;;;;7.55;1.92;;;;;;;37.57;3.48;100049.66;4983817;28;20063;-70
2022/05/01 08:31:28;;;;;;;5.72;1.65;;;;;;;37.55;3.22;100030.56;5033029;28;20059;-70
2022/05/01 08:33:56;;;;;;;6.72;1.88;;;;;;;34.38;3.98;100031.41;4983702;28;20497;-70
2022/05/01 08:36:22;;;;;;;2.42;1.80;;;;;;;32.14;5.06;100029.50;5000281;28;20090;-70
2022/05/01 08:38:48;;;;;;;2.42;1.70;;;;;;;33.86;4.42;100042.75;4983678;28;20555;-70
2022/05/01 08:41:14;;;;;;;3.63;2.17;;;;;;;35.72;3.70;100028.81;5015983;28;20532;-71
2022/05/01 08:43:39;;;;;;;2.17;1.58;;;;;;;37.31;3.19;100032.19;4983568;28;20417;-70
2022/05/01 08:46:16;;;;;;;2.00;1.67;;;;;;;37.21;2.87;100020.28;5000241;28;20049;-70
2022/05/01 08:48:52;;;;;;;4.50;1.88;;;;;;;38.60;2.73;100035.34;5015524;28;20076;-70
2022/05/01 08:51:19;;;;;;;3.47;1.80;;;;;;;40.33;2.27;100023.41;5016280;28;20132;-71
2022/05/01 08:53:45;;;;;;;4.15;1.80;;;;;;;41.70;1.66;100027.88;5016170;28;20041;-71
2022/05/01 08:56:16;;;;;;;11.93;2.20;;;;;;;40.13;1.71;100019.50;4983615;28;20377;-71
2022/05/01 08:58:44;;;;;;;2.88;1.70;;;;;;;38.02;2.78;100012.13;5032964;28;20045;-71
2022/05/01 09:01:13;;;;;;;7.97;2.13;;;;;;;36.24;3.24;100002.31;4983900;28;20194;-70
2022/05/01 09:03:39;;;;;;;3.42;2.38;;;;;;;34.46;3.90;100000.31;5015933;28;20049;-70
2022/05/01 09:06:05;;;;;;;6.15;3.33;;;;;;;33.04;4.84;99991.91;5000038;28;20052;-70
2022/05/01 09:08:31;;;;;;;3.63;2.42;;;;;;;31.63;5.34;99986.25;4999485;28;20048;-69
2022/05/01 09:12:49;;;;;;;4.80;2.10;;;;;;;31.45;5.49;99976.75;4983229;28;20048;-69
2022/05/01 09:13:44;;;;;;;3.90;2.33;;;;;;;34.01;4.77;99988.19;5002066;28;20523;-70
2022/05/01 09:16:11;;;;;;;3.22;2.10;;;;;;;36.40;3.18;99995.25;4999490;28;20057;-69
2022/05/01 09:18:47;;;;;;;3.25;1.90;;;;;;;37.73;2.37;99976.78;5049399;28;20049;-69
2022/05/01 09:21:13;;;;;;;3.22;2.03;;;;;;;36.94;2.94;99980.94;5015929;28;20363;-69
2022/05/01 09:23:44;;;;;;;4.25;2.60;;;;;;;38.36;2.81;99975.97;4983182;28;20041;-70
2022/05/01 09:26:14;;;;;;;2.90;1.80;;;;;;;36.97;2.59;99960.91;5032525;28;20041;-70
2022/05/01 09:28:50;;;;;;;7.00;2.00;;;;;;;35.00;3.59;99975.47;5032304;28;20052;-70
2022/05/01 09:31:17;;;;;;;5.43;2.00;;;;;;;36.72;2.92;99970.75;5032026;28;20055;-69
2022/05/01 09:33:43;;;;;;;3.97;2.30;;;;;;;38.58;2.27;99970.97;5015779;28;20037;-70
2022/05/01 09:36:32;;;;;;;3.17;2.13;;;;;;;37.81;2.76;99977.91;4999612;28;20412;-70
2022/05/01 09:39:05;;;;;;;3.92;3.25;;;;;;;38.97;2.56;99955.88;5015570;28;20281;-70
2022/05/01 09:41:31;;;;;;;4.28;2.30;;;;;;;40.44;1.83;99974.47;4999248;28;20044;-70
2022/05/01 09:44:12;;;;;;;4.50;1.75;;;;;;;40.34;1.85;99972.13;4983138;28;20048;-69
2022/05/01 09:46:38;;;;;;;2.78;1.75;;;;;;;41.40;1.29;99967.97;5016043;28;20056;-70
2022/05/01 09:49:13;;;;;;;9.85;2.03;;;;;;;40.18;1.59;99958.03;5015788;28;20500;-69
2022/05/01 09:51:47;;;;;;;3.78;1.80;;;;;;;37.92;2.07;99938.38;5033149;28;20068;-69
2022/05/01 09:54:23;;;;;;;6.20;2.33;;;;;;;35.93;2.95;99951.69;5016130;28;20127;-70
2022/05/01 09:57:00;;;;;;;3.35;1.95;;;;;;;35.86;3.32;99951.34;5015989;28;20192;-71
2022/05/01 09:59:32;;;;;;;3.25;1.98;;;;;;;35.87;3.28;99945.50;5034075;28;20060;-70
2022/05/01 10:02:05;;;;;;;4.78;1.90;;;;;;;33.95;3.81;99889.38;5036455;28;20436;-68
2022/05/01 10:04:32;;;;;;;3.75;3.17;;;;;;;32.96;4.30;99931.19;4986085;28;20076;-70
2022/05/01 10:06:59;;;;;;;5.47;2.33;;;;;;;31.61;4.79;99926.09;5002557;28;20421;-69
2022/05/01 10:09:26;;;;;;;8.63;2.80;;;;;;;31.43;5.06;99921.31;5002610;28;20096;-69
2022/05/01 10:11:57;;;;;;;5.35;2.15;;;;;;;31.73;5.23;99929.28;5002322;28;20037;-71
2022/05/01 10:14:22;;;;;;;;;;;;;;;33.73;4.46;99927.75;5035631;28;20051;-70
2022/05/01 10:16:48;;;;;;;2.30;2.03;;;;;;;35.49;3.51;99931.25;5018644;28;19924;-70
2022/05/01 10:19:19;;;;;;;3.97;2.58;;;;;;;35.94;3.29;99932.03;5019026;28;20041;-70
2022/05/01 10:21:47;;;;;;;4.35;2.08;;;;;;;37.67;2.86;99919.06;5018429;28;20048;-70
2022/05/01 10:24:16;;;;;;;5.45;2.00;;;;;;;39.80;1.71;99917.72;5018451;28;20076;-70
2022/05/01 10:27:10;;;;;;;8.35;2.25;;;;;;;39.48;1.95;99913.81;4986279;28;20037;-74
2022/05/01 10:29:40;;;;;;;2.50;1.60;;;;;;;36.64;2.75;99909.84;5035213;28;20045;-71
2022/05/01 10:32:40;;;;;;;3.60;1.80;;;;;;;32.36;4.53;99917.13;5035226;28;20064;-70
2022/05/01 10:35:34;;;;;;;2.55;2.15;;;;;;;32.26;5.03;99906.19;5035182;28;20527;-70
2022/05/01 10:38:09;;;;;;;6.18;2.00;;;;;;;33.04;4.18;99911.25;5034550;28;20127;-70
2022/05/01 10:40:50;;;;;;;4.55;1.95;;;;;;;34.43;3.75;99884.28;5051228;28;20056;-70
2022/05/01 10:43:26;;;;;;;3.63;3.08;;;;;;;32.79;4.25;99889.56;5051211;28;20094;-70
2022/05/01 10:45:53;;;;;;;3.72;2.47;;;;;;;31.83;4.53;99867.97;5034517;28;20059;-71
2022/05/01 10:48:48;;;;;;;2.90;2.05;;;;;;;33.16;4.06;99879.41;5018384;28;20044;-69
2022/05/01 10:51:38;;;;;;;2.70;2.17;;;;;;;33.25;4.07;99880.34;5005242;28;20084;-71
2022/05/01 10:54:17;;;;;;;5.70;4.72;;;;;;;33.71;3.82;99888.66;5034725;28;20135;-70
2022/05/01 10:56:45;;;;;;;4.85;2.70;;;;;;;34.99;3.37;99854.31;5034176;28;20106;-70
2022/05/01 10:59:29;;;;;;;5.93;2.53;;;;;;;36.36;2.96;99872.50;5034749;28;20074;-69
2022/05/01 11:02:06;;;;;;;2.97;1.80;;;;;;;33.91;3.60;99864.34;5034080;28;20056;-69
2022/05/01 11:04:36;;;;;;;2.60;1.95;;;;;;;32.65;4.43;99862.81;5034873;28;20045;-67
2022/05/01 11:07:04;;;;;;;3.03;2.13;;;;;;;32.27;4.56;99852.88;5050860;28;20077;-69
2022/05/01 11:09:32;;;;;;;3.13;1.83;;;;;;;30.79;4.88;99844.66;5033882;28;20044;-70
2022/05/01 11:12:00;;;;;;;3.95;2.70;;;;;;;29.89;5.90;99836.03;5016926;28;20076;-69
2022/05/01 11:14:33;;;;;;;5.45;2.20;;;;;;;29.01;6.22;99849.22;5017618;28;20053;-69
2022/05/01 11:16:59;;;;;;;3.08;2.30;;;;;;;26.93;7.29;99854.09;5033579;28;20063;-69
2022/05/01 11:19:30;;;;;;;3.28;2.35;;;;;;;26.84;7.50;99837.38;5001633;28;20048;-68
2022/05/01 11:21:58;;;;;;;3.83;2.40;;;;;;;27.03;7.42;99846.81;5017867;28;20056;-69
2022/05/01 11:24:45;;;;;;;4.65;3.00;;;;;;;26.74;7.54;99836.47;5017431;28;20052;-69
2022/05/01 11:27:16;;;;;;;5.97;2.90;;;;;;;26.68;7.58;99819.22;5034144;28;20047;-70
2022/05/01 11:30:06;;;;;;;7.25;2.53;;;;;;;26.58;7.87;99834.63;5017618;28;20043;-70
2022/05/01 11:32:45;;;;;;;;;;;;;;;26.63;7.91;99840.13;5033996;28;20541;-72
2022/05/01 11:35:11;;;;;;;3.67;2.30;;;;;;;25.52;8.35;99830.56;5017117;28;20077;-72
2022/05/01 11:38:06;;;;;;;4.05;2.50;;;;;;;25.18;8.59;99828.91;5017303;28;20124;-73
2022/05/01 11:40:33;;;;;;;3.67;2.22;;;;;;;24.86;8.95;99825.13;5033647;28;20049;-72
2022/05/01 11:43:15;;;;;;;3.22;2.42;;;;;;;24.77;9.07;99832.84;5016651;28;20080;-73
2022/05/01 11:45:41;;;;;;;3.17;2.33;;;;;;;24.17;9.24;99834.38;5033381;28;20044;-72
2022/05/01 11:48:12;;;;;;;4.45;2.13;;;;;;;23.28;9.42;99821.28;5016792;28;20045;-71